Aviation Digital Data Service (ADDS)

Output produced by METARs form (2017 UTC 01 October 2014)
found at http://www.aviationweather.gov/adds/metars/
 
KSEG 011953Z AUTO 00000KT 10SM CLR 22/13 A3002 RMK AO2 SLP165 T02220133
KSEG 011853Z AUTO 00000KT 9SM CLR 21/14 A3004 RMK AO2 SLP170 T02110144
KSEG 011753Z AUTO 00000KT 10SM CLR 19/14 A3005 RMK AO2 SLP175 T01940144 10200 20144 58012
KSEG 011718Z AUTO 00000KT 9SM SCT020 OVC100 19/14 A3006 RMK AO2 T01890139
KSEG 011653Z AUTO 00000KT 8SM OVC015 18/14 A3007 RMK AO2 SLP182 T01780139
KSEG 011632Z AUTO 00000KT 9SM OVC015 18/14 A3008 RMK AO2 T01780139
KSEG 011553Z AUTO 00000KT 7SM OVC014 17/14 A3009 RMK AO2 SLP187 T01720139
KSEG 011523Z AUTO 00000KT 7SM FEW008 OVC014 17/14 A3009 RMK AO2 T01670144
KSEG 011453Z AUTO 21003KT 7SM OVC012 17/14 A3009 RMK AO2 SLP186 T01670144 51009
KSEG 011353Z AUTO 00000KT 8SM SCT004 OVC013 16/14 A3008 RMK AO2 SLP184 T01560144
KSEG 011337Z AUTO 00000KT 6SM BR BKN004 OVC013 16/14 A3007 RMK AO2 T01560144
KSEG 011327Z AUTO 00000KT 6SM BR SCT004 OVC013 16/14 A3007 RMK AO2 T01560144
KSEG 011253Z AUTO 00000KT 3SM BR OVC003 15/14 A3006 RMK AO2 CIG 002V006 SLP178 T01500139
KSEG 011208Z AUTO 00000KT 4SM BR BKN003 15/14 A3004 RMK AO2 T01500139
KSEG 011153Z AUTO 00000KT 4SM BR SCT003 15/14 A3003 RMK AO2 SLP168 60011 70045 T01500139 10161 20144 53012
KSEG 011142Z AUTO 18003KT 3SM BR FEW003 FEW015 14/14 A3003 RMK AO2 T01440139
KSEG 011134Z AUTO 00000KT 2 1/2SM BR SCT015 14/14 A3002 RMK AO2 T01440139
KSEG 011111Z AUTO 00000KT 5SM BR BKN016 OVC100 15/14 A3002 RMK AO2 T01500139
KSEG 011053Z AUTO 00000KT 5SM BR OVC100 15/14 A3001 RMK AO2 SLP162 T01500144
KSEG 011038Z AUTO 21003KT 4SM BR SCT005 BKN100 15/14 A3001 RMK AO2 T01500144
KSEG 011011Z AUTO 00000KT 5SM BR OVC006 16/14 A3000 RMK AO2 T01560144
KSEG 010953Z AUTO 00000KT 4SM BR OVC005 16/14 A3000 RMK AO2 CIG 002V007 SLP155 T01560144
KSEG 010936Z AUTO 00000KT 4SM BR OVC003 16/14 A2999 RMK AO2 T01560144
KSEG 010928Z AUTO 00000KT 2SM BR OVC001 15/14 A2999 RMK AO2 T01500144
KSEG 010911Z AUTO 00000KT 1SM BR BKN002 OVC110 15/14 A2998 RMK AO2 T01500144
KSEG 010855Z AUTO 00000KT 1 3/4SM BR FEW002 BKN110 15/14 A2998 RMK AO2 T01500144
KSEG 010853Z AUTO 00000KT 2 1/2SM BR BKN110 15/14 A2998 RMK AO2 SLP151 60011 T01500144 58007
KSEG 010753Z AUTO 00000KT 6SM BR OVC100 16/14 A2998 RMK AO2 RAE49 SLP152 P0000 T01560144
KSEG 010653Z AUTO 00000KT 4SM -RA BR OVC090 16/15 A3001 RMK AO2 SLP159 P0011 T01610150
KSEG 010617Z AUTO 00000KT 4SM -RA BR FEW007 SCT065 OVC090 16/15 A3000 RMK AO2 P0007 T01560150
KSEG 010553Z AUTO 00000KT 2 1/2SM RA BR FEW005 OVC075 16/15 A3000 RMK AO2 SLP158 P0012 60034 T01560150 10194 20156 51008
KSEG 010548Z AUTO 00000KT 2 1/2SM +RA BR BKN075 OVC090 16/15 A3000 RMK AO2 P0011
KSEG 010500Z AUTO 00000KT 4SM RA BR SCT065 BKN080 OVC095 16/15 A2999 RMK AO2 P0001 T01610150
KSEG 010453Z AUTO 00000KT 2 1/2SM +RA BR BKN070 OVC085 16/15 A2999 RMK AO2 RAB0355 TSE08 SLP154 P0022 T01610150 402330122
KSEG 010429Z AUTO 22003KT 4SM RA BR FEW050 SCT065 OVC085 16/15 A2998 RMK AO2 LTG DSNT N AND NW RAB0355 TSE08 P0015 T01610150
KSEG 010420Z AUTO 00000KT 2 1/2SM RA BR FEW037 BKN060 OVC080 16/15 A2998 RMK AO2 LTG DSNT N AND NW RAB0355 TSE08 P0012 T01610150
KSEG 010416Z AUTO 00000KT 1 1/2SM VCTS +RA BR FEW035 BKN065 OVC080 16/15 A2998 RMK AO2 LTG DSNT NW RAB0355 TSE08 P0011 T01610150
KSEG 010408Z AUTO 00000KT 2SM VCTS RA BR SCT035 BKN049 OVC070 17/15 A2998 RMK AO2 LTG DSNT NW RAB0355 TSE08 P0006 T01670150
KSEG 010353Z AUTO 00000KT 9SM TS BKN035 OVC042 17/14 A2998 RMK AO2 LTG DSNT N AND SE AND NW TSB53 SLP149 T01720144
KSEG 010253Z AUTO 16003KT 10SM VCTS SCT043 BKN055 17/14 A2996 RMK AO2 LTG DSNT ALQDS SLP143 60000 T01720139 53012
KSEG 010231Z AUTO 19007KT 10SM VCTS FEW044 17/14 A2995 RMK AO2 LTG DSNT ALQDS T01720139
KSEG 010153Z AUTO 19003KT 10SM SCT038 18/14 A2994 RMK AO2 LTG DSNT SE-SW RAB21E39 TSE01 SLP137 P0000 T01780144
KSEG 010107Z AUTO 00000KT 7SM FEW060 SCT100 BKN120 19/16 A2992 RMK AO2 LTG DSNT S AND SW TSE01 T01940161
KSEG 010053Z AUTO 00000KT 7SM TS FEW060 SCT110 19/17 A2992 RMK AO2 LTG DSNT SW AND W TSB22E37B46 SLP131 T01940167
KSEG 010050Z AUTO 00000KT 7SM TS FEW060 SCT120 19/17 A2992 RMK AO2 LTG DSNT SW AND W TSB22E37B46
KSEG 010043Z AUTO 00000KT 7SM VCTS SCT060 19/17 A2992 RMK AO2 LTG DSNT SW AND W TSB22E37 T01890167
KSEG 010028Z AUTO 00000KT 7SM TS SCT060 SCT085 19/17 A2992 RMK AO2 LTG DSNT SW AND W TSB22 T01890172
KSEG 010006Z AUTO 00000KT 7SM FEW060 SCT100 19/17 A2991 RMK AO2 LTG DSNT SW AND W T01940167
KSEG 302353Z AUTO 00000KT 7SM VCTS SCT060 BKN100 19/17 A2991 RMK AO2 LTG DSNT SW AND W SLP128 T01940172 10233 20194 50012
KSEG 302351Z AUTO 00000KT 7SM VCTS SCT060 OVC100 19/17 A2991 RMK AO2 LTG DSNT SW AND W
KSEG 302253Z AUTO 00000KT 7SM OVC060 20/17 A2990 RMK AO2 SLP122 T02000172
KSEG 302153Z AUTO 13003KT 7SM SCT060 BKN070 23/16 A2988 RMK AO2 SLP116 T02280161
KSEG 302053Z AUTO 19003KT 7SM SCT065 BKN120 23/16 A2987 RMK AO2 SLP113 T02280161 56012
KSEG 301953Z AUTO 18005KT 7SM SCT070 BKN090 BKN120 22/16 A2988 RMK AO2 SLP115 T02220161
KSEG 301853Z AUTO 00000KT 5SM HZ SCT024 SCT060 22/16 A2990 RMK AO2 SLP121 T02170161
KSEG 301843Z AUTO VRB04KT 6SM HZ BKN024 BKN060 22/17 A2990 RMK AO2 T02220167
KSEG 301753Z AUTO 22004KT 5SM HZ FEW016 22/17 A2990 RMK AO2 SLP125 T02220167 10222 20139 58012
KSEG 301653Z AUTO 00000KT 4SM HZ FEW013 SCT023 BKN065 21/17 A2993 RMK AO2 SLP133 T02060167
KSEG 301553Z AUTO 00000KT 4SM HZ OVC019 19/16 A2993 RMK AO2 SLP133 T01940161
KSEG 301532Z AUTO 00000KT 4SM BR OVC015 18/16 A2993 RMK AO2 T01830161
KSEG 301453Z AUTO 00000KT 3SM BR FEW004 OVC013 17/16 A2994 RMK AO2 SLP138 T01720156 50001
KSEG 301446Z AUTO 00000KT 3SM BR SCT004 OVC013 17/16 A2994 RMK AO2 T01720156
KSEG 301435Z AUTO 00000KT 3SM BR BKN004 OVC012 17/15 A2994 RMK AO2 T01670150
KSEG 301410Z AUTO 00000KT 2 1/2SM BR OVC002 16/15 A2995 RMK AO2 CIG 002V006 T01560150
KSEG 301353Z AUTO 00000KT 1 1/4SM BR OVC002 15/15 A2995 RMK AO2 SLP141 T01500150
KSEG 301322Z AUTO 00000KT 1 1/4SM BR OVC002 15/14 A2995 RMK AO2 T01500144
KSEG 301253Z AUTO 00000KT 1/4SM FG OVC002 14/14 A2995 RMK AO2 SLP140 T01440139
KSEG 301153Z AUTO 35003KT M1/4SM FG VV001 14/13 A2994 RMK AO2 SLP137 T01390133 10144 20122 53010
KSEG 301053Z AUTO 00000KT 1/4SM FG VV001 14/13 A2992 RMK AO2 SLP131 T01390133
KSEG 300953Z AUTO 00000KT 1/4SM FG VV001 14/14 A2991 RMK AO2 SLP128 T01390139
KSEG 300853Z AUTO 00000KT 1/4SM FG VV002 13/13 A2991 RMK AO2 SLP125 T01330128 56005